createdAt,value
2023-04-14T00:00:08.930Z,1.90
2023-04-14T00:02:45.223Z,1.80
2023-04-14T00:05:15.781Z,1.70
2023-04-14T00:07:44.609Z,1.90
2023-04-14T00:10:15.701Z,1.70
2023-04-14T00:12:44.444Z,1.70
2023-04-14T00:15:13.796Z,1.63
2023-04-14T00:17:42.530Z,2.03
2023-04-14T00:20:12.006Z,1.87
2023-04-14T00:22:42.158Z,1.80
2023-04-14T00:25:11.448Z,1.60
2023-04-14T00:27:40.309Z,1.80
2023-04-14T00:30:11.445Z,1.70
2023-04-14T00:32:41.219Z,1.63
2023-04-14T00:35:10.577Z,1.90
2023-04-14T00:37:39.353Z,1.80
2023-04-14T00:40:12.036Z,1.90
2023-04-14T00:42:45.228Z,1.50
2023-04-14T00:45:15.616Z,1.63
2023-04-14T00:47:49.355Z,1.80
2023-04-14T00:50:20.889Z,1.57
2023-04-14T00:52:59.307Z,1.50
2023-04-14T00:55:31.044Z,1.60
2023-04-14T00:58:00.102Z,1.80
2023-04-14T01:00:29.048Z,1.63
2023-04-14T01:03:01.626Z,1.80
2023-04-14T01:05:30.725Z,1.90
2023-04-14T01:07:59.846Z,1.47
2023-04-14T01:10:42.144Z,1.93
2023-04-14T01:13:33.828Z,1.80
2023-04-14T01:16:19.234Z,1.83
2023-04-14T01:19:00.319Z,1.80
2023-04-14T01:21:42.869Z,1.80
2023-04-14T01:24:48.903Z,1.70
2023-04-14T01:27:42.060Z,1.50
2023-04-14T01:30:34.370Z,1.83
2023-04-14T01:33:09.344Z,1.57
2023-04-14T01:35:43.668Z,1.60
2023-04-14T01:38:22.122Z,1.80
2023-04-14T01:40:57.491Z,1.50
2023-04-14T01:43:33.389Z,1.60
2023-04-14T01:46:13.881Z,1.93
2023-04-14T01:48:45.787Z,1.60
2023-04-14T01:51:19.917Z,1.80
2023-04-14T01:53:52.133Z,1.57
2023-04-14T01:56:22.956Z,1.70
2023-04-14T01:58:54.547Z,1.77
2023-04-14T02:01:24.000Z,1.60
2023-04-14T02:03:54.751Z,1.80
2023-04-14T02:06:27.617Z,1.60
2023-04-14T02:08:58.076Z,1.67
2023-04-14T02:11:30.742Z,1.80
2023-04-14T02:14:03.344Z,1.80
2023-04-14T02:16:35.482Z,1.60
2023-04-14T02:19:06.936Z,1.73
2023-04-14T02:21:37.147Z,1.80
2023-04-14T02:24:06.617Z,1.50
2023-04-14T02:26:41.694Z,2.03
2023-04-14T02:29:16.540Z,1.70
2023-04-14T02:32:01.927Z,2.37
2023-04-14T02:34:39.537Z,1.90
2023-04-14T02:37:19.188Z,1.57
2023-04-14T02:40:02.153Z,2.00
2023-04-14T02:42:35.949Z,1.50
2023-04-14T02:45:10.539Z,2.10
2023-04-14T02:47:45.891Z,1.87
2023-04-14T02:50:20.651Z,1.70
2023-04-14T02:53:01.892Z,1.97
2023-04-14T02:55:37.723Z,1.77
2023-04-14T02:58:07.618Z,1.73
2023-04-14T03:00:41.919Z,1.93
2023-04-14T03:03:13.368Z,1.80
2023-04-14T03:05:46.530Z,2.13
2023-04-14T03:08:18.356Z,2.20
2023-04-14T03:10:53.102Z,1.80
2023-04-14T03:13:28.684Z,1.87
2023-04-14T03:15:59.742Z,1.80
2023-04-14T03:18:33.545Z,2.13
2023-04-14T03:21:05.935Z,1.90
2023-04-14T03:23:37.732Z,1.80
2023-04-14T03:26:18.550Z,2.03
2023-04-14T03:28:50.841Z,2.10
2023-04-14T03:31:22.442Z,2.10
2023-04-14T03:33:58.590Z,1.90
2023-04-14T03:36:36.770Z,1.90
2023-04-14T03:39:09.285Z,2.30
2023-04-14T03:41:51.736Z,2.40
2023-04-14T03:44:23.842Z,2.10
2023-04-14T03:46:54.671Z,2.40
2023-04-14T03:49:27.093Z,2.60
2023-04-14T03:57:17.645Z,2.40
2023-04-14T03:59:50.947Z,2.67
2023-04-14T04:02:24.736Z,2.50
2023-04-14T04:04:55.902Z,3.10
2023-04-14T04:07:28.612Z,3.00
2023-04-14T04:09:59.139Z,3.50
2023-04-14T04:12:31.070Z,4.00
2023-04-14T04:15:00.744Z,4.40
2023-04-14T04:17:33.930Z,5.77
2023-04-14T04:20:26.362Z,3.87
2023-04-14T04:23:02.926Z,4.33
2023-04-14T04:25:33.376Z,4.40
2023-04-14T04:28:11.278Z,4.87
2023-04-14T04:30:41.927Z,5.10
2023-04-14T04:34:28.968Z,4.47
2023-04-14T04:38:38.554Z,4.90
2023-04-14T04:41:22.188Z,4.60
2023-04-14T04:43:54.119Z,5.23
2023-04-14T04:46:45.461Z,5.10
2023-04-14T04:49:14.948Z,5.50
2023-04-14T04:51:44.478Z,5.77
2023-04-14T04:54:13.583Z,4.73
2023-04-14T04:56:42.369Z,6.07
2023-04-14T04:59:12.618Z,5.17
2023-04-14T05:01:43.498Z,5.40
2023-04-14T05:04:12.342Z,6.43
2023-04-14T05:06:41.101Z,6.60
2023-04-14T05:09:09.998Z,6.50
2023-04-14T05:11:38.671Z,6.73
2023-04-14T05:14:07.325Z,6.10
2023-04-14T05:16:38.714Z,6.97
2023-04-14T05:19:07.705Z,6.83
2023-04-14T05:21:36.600Z,6.60
2023-04-14T05:24:06.079Z,6.33
2023-04-14T05:26:57.833Z,6.67
2023-04-14T05:29:23.662Z,6.30
2023-04-14T05:32:07.602Z,20.47
2023-04-14T05:34:36.785Z,7.17
2023-04-14T05:37:06.144Z,7.80
2023-04-14T05:39:34.896Z,7.53
2023-04-14T05:42:03.582Z,11.13
2023-04-14T05:44:32.367Z,13.60
2023-04-14T05:47:01.726Z,15.23
2023-04-14T05:49:32.586Z,16.27
2023-04-14T05:52:01.289Z,7.67
2023-04-14T05:54:30.177Z,8.33
2023-04-14T05:56:59.968Z,8.57
2023-04-14T05:59:28.850Z,8.10
2023-04-14T06:01:57.704Z,7.73
2023-04-14T06:04:26.655Z,7.53
2023-04-14T06:06:58.668Z,7.87
2023-04-14T06:09:27.431Z,8.67
2023-04-14T06:11:56.752Z,7.73
2023-04-14T06:14:25.689Z,8.10
2023-04-14T06:16:54.527Z,7.30
2023-04-14T06:19:24.115Z,6.93
2023-04-14T06:21:53.939Z,6.40
2023-04-14T06:24:24.109Z,6.00
2023-04-14T06:26:53.197Z,6.63
2023-04-14T06:29:21.898Z,6.50
2023-04-14T06:31:54.953Z,7.00
2023-04-14T06:34:23.882Z,6.37
2023-04-14T06:36:53.126Z,6.57
2023-04-14T06:41:00.840Z,7.67
2023-04-14T06:43:29.659Z,6.73
2023-04-14T06:45:59.699Z,7.23
2023-04-14T06:48:37.010Z,6.70
2023-04-14T06:51:07.752Z,6.87
2023-04-14T06:53:36.601Z,5.70
2023-04-14T06:56:08.308Z,7.27
2023-04-14T06:58:37.274Z,6.70
2023-04-14T07:01:06.247Z,6.53
2023-04-14T07:06:17.354Z,7.37
2023-04-14T07:08:51.316Z,6.17
2023-04-14T07:11:21.609Z,6.43
2023-04-14T07:13:51.137Z,7.57
2023-04-14T07:16:51.159Z,6.20
2023-04-14T07:19:20.524Z,6.50
2023-04-14T07:21:49.904Z,6.30
2023-04-14T07:24:25.084Z,7.20
2023-04-14T07:26:56.262Z,6.70
2023-04-14T07:29:27.278Z,5.37
2023-04-14T07:31:56.789Z,8.93
2023-04-14T07:34:25.679Z,10.47
2023-04-14T07:37:46.143Z,6.60
2023-04-14T07:40:15.257Z,7.70
2023-04-14T07:42:45.841Z,7.23
2023-04-14T07:45:14.846Z,7.27
2023-04-14T07:47:43.853Z,6.10
2023-04-14T07:50:32.064Z,5.33
2023-04-14T07:53:01.052Z,5.20
2023-04-14T07:55:29.847Z,4.90
2023-04-14T07:58:02.148Z,4.57
2023-04-14T08:00:31.941Z,4.47
2023-04-14T08:03:01.599Z,4.87
2023-04-14T08:05:52.676Z,4.93
2023-04-14T08:09:01.736Z,5.50
2023-04-14T08:11:31.505Z,5.40
2023-04-14T08:14:02.149Z,6.03
2023-04-14T08:16:31.420Z,5.30
2023-04-14T08:19:00.762Z,6.97
2023-04-14T08:21:29.869Z,6.57
2023-04-14T08:23:58.638Z,6.57
2023-04-14T08:26:28.664Z,7.27
2023-04-14T08:29:02.963Z,6.70
2023-04-14T08:31:55.859Z,7.20
2023-04-14T08:34:29.015Z,7.33
2023-04-14T08:37:00.569Z,7.50
2023-04-14T08:39:38.635Z,6.20
2023-04-14T08:42:10.645Z,7.73
2023-04-14T08:44:41.406Z,6.97
2023-04-14T08:48:06.051Z,6.70
2023-04-14T08:50:42.559Z,7.57
2023-04-14T08:53:12.015Z,7.30
2023-04-14T08:55:42.667Z,7.67
2023-04-14T08:58:12.539Z,6.27
2023-04-14T09:01:05.361Z,4.77
2023-04-14T09:04:55.519Z,4.80
2023-04-14T09:07:27.720Z,7.10
2023-04-14T09:10:50.393Z,4.97
2023-04-14T09:14:09.294Z,5.60
2023-04-14T09:16:48.904Z,5.37
2023-04-14T09:19:18.333Z,4.80
2023-04-14T09:22:16.124Z,4.53
2023-04-14T09:24:45.857Z,4.83
2023-04-14T09:28:05.613Z,4.63
2023-04-14T09:30:35.409Z,4.30
2023-04-14T09:33:08.688Z,4.00
2023-04-14T09:35:48.665Z,3.70
2023-04-14T09:38:42.993Z,3.40
2023-04-14T09:41:18.434Z,4.00
2023-04-14T09:43:47.427Z,5.57
2023-04-14T09:46:58.120Z,3.37
2023-04-14T09:49:31.320Z,3.20
2023-04-14T09:52:08.296Z,3.10
2023-04-14T09:55:11.526Z,4.20
2023-04-14T09:57:45.101Z,3.50
2023-04-14T10:00:22.723Z,2.50
2023-04-14T10:02:56.522Z,8.67
2023-04-14T10:05:31.055Z,3.20
2023-04-14T10:08:05.428Z,3.40
2023-04-14T10:10:40.139Z,3.23
2023-04-14T10:13:19.523Z,3.07
2023-04-14T10:15:52.268Z,3.20
2023-04-14T10:18:22.169Z,3.13
2023-04-14T10:20:54.488Z,3.00
2023-04-14T10:23:23.890Z,3.60
2023-04-14T10:25:53.821Z,3.70
2023-04-14T10:28:24.009Z,3.50
2023-04-14T10:30:55.892Z,3.50
2023-04-14T10:33:26.934Z,3.60
2023-04-14T10:36:02.181Z,3.40
2023-04-14T10:38:47.421Z,3.37
2023-04-14T10:42:12.218Z,3.27
2023-04-14T10:48:56.886Z,3.23
2023-04-14T10:52:39.394Z,3.00
2023-04-14T10:55:12.394Z,3.30
2023-04-14T10:59:03.355Z,2.90
2023-04-14T11:02:00.429Z,2.73
2023-04-14T11:05:05.269Z,3.10
2023-04-14T11:08:01.597Z,2.70
2023-04-14T11:10:48.746Z,2.50
2023-04-14T11:13:18.216Z,3.20
2023-04-14T11:15:58.162Z,2.50
2023-04-14T11:18:45.310Z,2.60
2023-04-14T11:21:18.212Z,3.13
2023-04-14T11:23:48.179Z,3.20
2023-04-14T11:26:44.384Z,3.20
2023-04-14T11:29:13.417Z,2.57
2023-04-14T11:31:49.285Z,2.90
2023-04-14T11:34:25.768Z,3.07
2023-04-14T11:37:05.344Z,2.90
2023-04-14T11:40:56.843Z,3.00
2023-04-14T11:43:49.077Z,2.93
2023-04-14T11:46:22.249Z,3.43
2023-04-14T11:48:57.352Z,3.73
2023-04-14T11:51:33.896Z,3.47
2023-04-14T11:54:03.569Z,3.27
2023-04-14T11:56:34.884Z,3.00
2023-04-14T11:59:06.791Z,3.10
2023-04-14T12:01:35.985Z,3.60
2023-04-14T12:04:17.819Z,3.47
2023-04-14T12:07:21.118Z,3.27
2023-04-14T12:14:35.558Z,3.40
2023-04-14T12:18:30.614Z,3.20
2023-04-14T12:21:34.522Z,2.87
2023-04-14T12:24:12.869Z,2.60
2023-04-14T12:26:46.276Z,2.70
2023-04-14T12:29:31.300Z,2.90
2023-04-14T12:32:02.366Z,2.60
2023-04-14T12:34:31.912Z,2.57
2023-04-14T12:37:12.276Z,2.60
2023-04-14T12:39:58.316Z,2.43
2023-04-14T12:42:43.985Z,2.03
2023-04-14T12:45:21.915Z,2.80
2023-04-14T12:48:45.180Z,3.10
2023-04-14T12:51:20.645Z,2.87
2023-04-14T12:53:53.722Z,4.43
2023-04-14T12:58:05.098Z,3.20
2023-04-14T13:00:34.208Z,3.30
2023-04-14T13:03:04.001Z,3.80
2023-04-14T13:05:33.456Z,3.93
2023-04-14T13:08:33.484Z,7.13
2023-04-14T13:11:12.648Z,6.73
2023-04-14T13:13:44.603Z,8.73
2023-04-14T13:16:20.361Z,4.10
2023-04-14T13:18:56.700Z,4.03
2023-04-14T13:22:16.713Z,3.77
2023-04-14T13:24:47.653Z,3.77
2023-04-14T13:27:20.863Z,3.40
2023-04-14T13:29:49.942Z,3.40
2023-04-14T13:37:32.191Z,3.13
2023-04-14T13:40:41.658Z,3.67
2023-04-14T13:46:41.188Z,3.90
2023-04-14T13:50:17.365Z,4.10
2023-04-14T13:52:36.447Z,3.90
2023-04-14T13:55:08.216Z,3.70
2023-04-14T13:57:38.554Z,3.50
2023-04-14T14:00:16.606Z,4.00
2023-04-14T14:02:46.842Z,4.40
2023-04-14T14:05:28.572Z,4.27
2023-04-14T14:08:38.161Z,3.93
2023-04-14T14:11:20.365Z,5.00
2023-04-14T14:13:53.068Z,4.10
2023-04-14T14:23:34.096Z,4.90
2023-04-14T14:26:42.109Z,4.40
2023-04-14T14:29:25.083Z,4.20
2023-04-14T14:31:56.604Z,4.10
2023-04-14T14:34:25.779Z,3.93
2023-04-14T14:36:59.340Z,4.00
2023-04-14T14:40:31.465Z,4.43
2023-04-14T14:47:20.130Z,5.40
2023-04-14T14:49:59.984Z,4.07
2023-04-14T14:52:34.080Z,4.40
2023-04-14T14:55:04.686Z,4.43
2023-04-14T14:57:34.096Z,3.70
2023-04-14T15:00:03.766Z,4.80
2023-04-14T15:02:35.388Z,4.30
2023-04-14T15:05:04.839Z,4.33
2023-04-14T15:07:35.159Z,4.30
2023-04-14T15:10:08.552Z,3.20
2023-04-14T15:12:37.484Z,4.23
2023-04-14T15:15:13.434Z,4.40
2023-04-14T15:17:46.100Z,4.63
2023-04-14T15:20:15.738Z,4.47
2023-04-14T15:24:08.846Z,4.57
2023-04-14T15:26:38.095Z,4.73
2023-04-14T15:29:09.211Z,5.40
2023-04-14T15:31:38.939Z,5.30
2023-04-14T15:34:38.835Z,4.80
2023-04-14T15:37:07.784Z,5.00
2023-04-14T15:40:01.182Z,4.90
2023-04-14T15:42:33.764Z,5.63
2023-04-14T15:45:03.434Z,4.97
2023-04-14T15:47:32.364Z,6.00
2023-04-14T15:50:09.112Z,5.77
2023-04-14T15:52:40.147Z,5.60
2023-04-14T15:55:11.410Z,7.10
2023-04-14T16:02:11.465Z,4.80
2023-04-14T16:04:40.872Z,6.00
2023-04-14T16:07:11.342Z,7.47
2023-04-14T16:09:40.583Z,5.33
2023-04-14T16:12:10.097Z,6.03
2023-04-14T16:14:38.863Z,4.87
2023-04-14T16:17:07.739Z,6.17
2023-04-14T16:21:13.989Z,5.33
2023-04-14T16:25:06.441Z,6.60
2023-04-14T16:32:26.028Z,6.20
2023-04-14T16:34:54.927Z,5.97
2023-04-14T16:37:26.035Z,5.97
2023-04-14T16:40:11.679Z,5.50
2023-04-14T16:42:40.992Z,20.33
2023-04-14T16:45:11.047Z,6.40
2023-04-14T16:48:07.596Z,5.20
2023-04-14T16:50:40.343Z,4.90
2023-04-14T16:53:12.520Z,5.23
2023-04-14T16:57:10.904Z,5.80
2023-04-14T16:59:40.004Z,5.00
2023-04-14T17:03:07.606Z,5.20
2023-04-14T17:05:36.690Z,4.70
2023-04-14T17:08:06.040Z,5.20
2023-04-14T17:10:34.861Z,6.30
2023-04-14T17:13:04.187Z,5.60
2023-04-14T17:15:39.566Z,5.00
2023-04-14T17:18:25.251Z,4.97
2023-04-14T17:20:57.173Z,4.87
2023-04-14T17:23:52.516Z,4.70
2023-04-14T17:26:21.822Z,5.03
2023-04-14T17:29:09.706Z,5.17
2023-04-14T17:31:46.656Z,5.03
2023-04-14T17:34:49.001Z,5.00
2023-04-14T17:37:37.206Z,4.93
2023-04-14T17:40:09.041Z,5.00
2023-04-14T17:42:38.776Z,5.60
2023-04-14T17:46:05.167Z,4.90
2023-04-14T17:48:41.597Z,4.67
2023-04-14T17:51:39.820Z,5.30
2023-04-14T17:54:09.026Z,4.67
2023-04-14T17:56:51.063Z,5.30
2023-04-14T17:59:33.543Z,5.10
2023-04-14T18:02:04.054Z,5.00
2023-04-14T18:04:48.041Z,5.47
2023-04-14T18:08:07.751Z,5.07
2023-04-14T18:11:16.740Z,5.33
2023-04-14T18:14:43.561Z,4.83
2023-04-14T18:17:26.369Z,5.30
2023-04-14T18:20:42.683Z,4.97
2023-04-14T18:29:45.789Z,5.40
2023-04-14T18:34:07.134Z,5.80
2023-04-14T18:37:07.590Z,4.97
2023-04-14T18:40:02.535Z,4.57
2023-04-14T18:44:28.720Z,4.87
2023-04-14T18:58:32.803Z,5.53
2023-04-14T19:05:05.028Z,5.13
2023-04-14T19:08:26.258Z,5.50
2023-04-14T19:15:06.598Z,6.37
2023-04-14T19:18:03.225Z,7.60
2023-04-14T19:20:34.686Z,8.87
2023-04-14T19:23:47.926Z,6.57
2023-04-14T19:26:41.201Z,6.10
2023-04-14T19:29:23.207Z,6.30
2023-04-14T19:31:59.419Z,6.40
2023-04-14T19:34:45.008Z,6.60
2023-04-14T19:37:35.858Z,6.40
2023-04-14T19:40:26.909Z,5.93
2023-04-14T19:43:02.340Z,5.47
2023-04-14T19:46:11.454Z,5.50
2023-04-14T19:52:32.547Z,4.80
2023-04-14T19:55:22.356Z,5.27
2023-04-14T19:59:06.792Z,4.77
2023-04-14T20:01:54.067Z,5.07
2023-04-14T20:08:29.989Z,3.90
2023-04-14T20:12:21.623Z,4.70
2023-04-14T20:15:08.145Z,4.40
2023-04-14T20:22:43.416Z,5.00
2023-04-14T20:26:14.725Z,3.70
2023-04-14T20:29:05.555Z,3.60
2023-04-14T20:31:47.509Z,3.43
2023-04-14T20:34:25.151Z,3.80
2023-04-14T20:37:04.800Z,4.10
2023-04-14T20:42:48.437Z,3.47
2023-04-14T20:45:22.461Z,3.47
2023-04-14T20:47:53.999Z,3.23
2023-04-14T20:50:44.811Z,3.80
2023-04-14T20:53:15.261Z,3.37
2023-04-14T20:55:45.050Z,3.30
2023-04-14T20:58:16.306Z,3.30
2023-04-14T21:00:45.610Z,3.00
2023-04-14T21:03:14.530Z,3.10
2023-04-14T21:05:43.462Z,3.60
2023-04-14T21:08:12.837Z,3.30
2023-04-14T21:11:16.110Z,3.90
2023-04-14T21:15:39.889Z,3.97
2023-04-14T21:16:26.135Z,3.63
2023-04-14T21:18:55.199Z,3.70
2023-04-14T21:21:23.931Z,3.87
2023-04-14T21:23:52.855Z,3.93
2023-04-14T21:26:22.026Z,4.07
2023-04-14T21:28:52.204Z,3.90
2023-04-14T21:31:21.104Z,4.30
2023-04-14T21:33:49.808Z,3.70
2023-04-14T21:36:19.872Z,3.90
2023-04-14T21:38:48.765Z,3.60
2023-04-14T21:41:17.456Z,3.53
2023-04-14T21:43:46.077Z,4.43
2023-04-14T21:46:16.659Z,4.03
2023-04-14T21:48:45.769Z,3.53
2023-04-14T21:51:14.967Z,3.57
2023-04-14T21:53:43.685Z,3.90
2023-04-14T21:56:13.213Z,3.37
2023-04-14T21:58:42.036Z,3.43
2023-04-14T22:01:11.532Z,3.43
2023-04-14T22:03:43.066Z,3.37
2023-04-14T22:06:12.404Z,2.90
2023-04-14T22:08:42.141Z,3.00
2023-04-14T22:11:11.141Z,4.27
2023-04-14T22:13:39.910Z,2.80
2023-04-14T22:16:11.714Z,3.07
2023-04-14T22:18:42.183Z,2.90
2023-04-14T22:21:14.757Z,2.80
2023-04-14T22:23:44.755Z,2.60
2023-04-14T22:26:14.115Z,2.90
2023-04-14T22:28:43.201Z,2.30
2023-04-14T22:31:11.979Z,2.87
2023-04-14T22:33:44.435Z,2.87
2023-04-14T22:36:14.072Z,3.03
2023-04-14T22:38:47.569Z,2.20
2023-04-14T22:41:16.721Z,2.20
2023-04-14T22:43:45.477Z,2.50
2023-04-14T22:46:14.267Z,2.60
2023-04-14T22:48:44.481Z,2.40
2023-04-14T22:51:13.093Z,2.53
2023-04-14T22:53:41.833Z,1.70
2023-04-14T22:56:10.717Z,2.00
2023-04-14T22:58:39.956Z,1.80
2023-04-14T23:01:21.317Z,2.00
2023-04-14T23:03:53.692Z,2.20
2023-04-14T23:06:23.324Z,1.90
2023-04-14T23:08:52.923Z,1.80
2023-04-14T23:11:22.008Z,1.80
2023-04-14T23:13:51.550Z,2.17
2023-04-14T23:16:21.154Z,1.90
2023-04-14T23:18:52.537Z,1.83
2023-04-14T23:21:23.033Z,2.00
2023-04-14T23:23:52.526Z,2.47
2023-04-14T23:26:22.809Z,2.00
2023-04-14T23:28:53.076Z,1.73
2023-04-14T23:31:21.865Z,1.70
2023-04-14T23:33:53.018Z,1.80
2023-04-14T23:36:21.922Z,1.40
2023-04-14T23:38:50.642Z,1.60
2023-04-14T23:41:20.089Z,1.70
2023-04-14T23:43:49.629Z,1.53
2023-04-14T23:46:18.429Z,1.80
2023-04-14T23:48:47.450Z,1.80
2023-04-14T23:51:22.926Z,2.00
2023-04-14T23:53:52.118Z,2.23
2023-04-14T23:56:21.188Z,2.00
2023-04-14T23:58:49.829Z,2.00
